createdAt,value
2022-10-01T00:01:19.958Z,14.51
2022-10-01T00:03:47.953Z,14.51
2022-10-01T00:06:21.143Z,14.52
2022-10-01T00:08:50.545Z,14.58
2022-10-01T00:11:24.353Z,14.61
2022-10-01T00:13:53.768Z,14.50
2022-10-01T00:16:25.331Z,14.53
2022-10-01T00:18:53.853Z,14.55
2022-10-01T00:21:24.437Z,14.53
2022-10-01T00:23:57.139Z,14.52
2022-10-01T00:26:30.641Z,14.45
2022-10-01T00:29:15.722Z,14.45
2022-10-01T00:31:42.948Z,14.47
2022-10-01T00:34:15.056Z,14.45
2022-10-01T00:36:42.446Z,14.49
2022-10-01T00:39:12.164Z,14.46
2022-10-01T00:41:39.652Z,14.50
2022-10-01T00:44:37.422Z,14.44
2022-10-01T00:47:41.062Z,14.47
2022-10-01T00:50:17.899Z,14.40
2022-10-01T00:52:52.205Z,14.39
2022-10-01T00:55:36.250Z,14.42
2022-10-01T00:58:05.052Z,14.46
2022-10-01T01:00:32.653Z,14.46
2022-10-01T01:02:59.735Z,14.45
2022-10-01T01:05:26.831Z,14.41
2022-10-01T01:07:54.275Z,14.40
2022-10-01T01:11:08.062Z,14.36
2022-10-01T01:14:01.959Z,14.34
2022-10-01T01:16:38.211Z,14.36
2022-10-01T01:19:17.391Z,14.34
2022-10-01T01:21:48.950Z,14.34
2022-10-01T01:24:49.993Z,14.32
2022-10-01T01:27:42.657Z,14.32
2022-10-01T01:30:17.073Z,14.35
2022-10-01T01:33:04.715Z,14.33
2022-10-01T01:35:39.463Z,14.28
2022-10-01T01:38:31.181Z,14.30
2022-10-01T01:41:02.197Z,14.36
2022-10-01T01:43:34.027Z,14.36
2022-10-01T01:46:05.103Z,14.38
2022-10-01T01:48:36.455Z,14.36
2022-10-01T01:51:39.668Z,14.33
2022-10-01T01:54:07.258Z,14.33
2022-10-01T01:56:34.422Z,14.32
2022-10-01T01:59:03.269Z,14.35
2022-10-01T02:01:39.345Z,14.37
2022-10-01T02:04:23.211Z,14.31
2022-10-01T02:07:20.955Z,14.34
2022-10-01T02:10:10.331Z,14.33
2022-10-01T02:13:04.601Z,14.30
2022-10-01T02:16:19.156Z,14.33
2022-10-01T02:19:15.465Z,14.39
2022-10-01T02:22:12.781Z,14.35
2022-10-01T02:24:41.517Z,14.34
2022-10-01T02:27:15.682Z,14.34
2022-10-01T02:29:45.211Z,14.32
2022-10-01T02:32:14.482Z,14.33
2022-10-01T02:34:42.207Z,14.35
2022-10-01T02:37:11.551Z,14.37
2022-10-01T02:39:41.481Z,14.35
2022-10-01T02:42:13.297Z,14.34
2022-10-01T02:44:45.061Z,14.36
2022-10-01T02:47:24.566Z,14.36
2022-10-01T02:49:52.695Z,14.42
2022-10-01T02:52:28.357Z,14.40
2022-10-01T02:55:10.610Z,14.40
2022-10-01T02:57:38.172Z,14.39
2022-10-01T03:00:13.472Z,14.40
2022-10-01T03:02:40.661Z,14.41
2022-10-01T03:05:08.546Z,14.44
2022-10-01T03:07:36.310Z,14.42
2022-10-01T03:10:05.614Z,14.45
2022-10-01T03:12:33.160Z,14.45
2022-10-01T03:15:00.524Z,14.47
2022-10-01T03:17:27.515Z,14.47
2022-10-01T03:19:55.193Z,14.48
2022-10-01T03:22:23.536Z,14.50
2022-10-01T03:24:52.244Z,14.51
2022-10-01T03:27:21.002Z,14.53
2022-10-01T03:29:48.268Z,14.51
2022-10-01T03:32:16.294Z,14.55
2022-10-01T03:34:43.369Z,14.55
2022-10-01T03:37:10.757Z,14.57
2022-10-01T03:39:37.782Z,14.59
2022-10-01T03:42:06.004Z,14.59
2022-10-01T03:44:33.808Z,14.60
2022-10-01T03:47:00.858Z,14.61
2022-10-01T03:49:28.042Z,14.65
2022-10-01T03:51:55.479Z,14.64
2022-10-01T03:54:22.582Z,14.66
2022-10-01T03:56:49.680Z,14.71
2022-10-01T03:59:16.721Z,14.68
2022-10-01T04:01:43.728Z,14.71
2022-10-01T04:04:10.764Z,14.70
2022-10-01T04:06:37.813Z,14.71
2022-10-01T04:09:05.084Z,14.73
2022-10-01T04:11:32.584Z,14.74
2022-10-01T04:13:59.907Z,14.74
2022-10-01T04:16:27.054Z,14.75
2022-10-01T04:18:55.267Z,14.76
2022-10-01T04:21:22.195Z,14.78
2022-10-01T04:23:50.313Z,14.79
2022-10-01T04:26:19.140Z,14.79
2022-10-01T04:28:46.924Z,14.82
2022-10-01T04:31:24.560Z,14.82
2022-10-01T04:33:57.459Z,14.84
2022-10-01T04:36:25.658Z,14.85
2022-10-01T04:39:01.699Z,14.85
2022-10-01T04:41:32.808Z,14.87
2022-10-01T04:44:00.692Z,14.89
2022-10-01T04:46:30.382Z,14.90
2022-10-01T04:48:57.909Z,14.90
2022-10-01T04:51:25.613Z,14.93
2022-10-01T04:53:52.604Z,14.90
2022-10-01T04:56:19.616Z,14.93
2022-10-01T04:58:46.690Z,14.96
2022-10-01T05:01:13.686Z,14.95
2022-10-01T05:03:41.297Z,14.97
2022-10-01T05:06:08.234Z,14.97
2022-10-01T05:08:35.247Z,14.98
2022-10-01T05:11:03.208Z,15.01
2022-10-01T05:13:31.890Z,15.00
2022-10-01T05:15:59.346Z,15.01
2022-10-01T05:18:26.522Z,15.01
2022-10-01T05:20:53.501Z,15.01
2022-10-01T05:23:20.505Z,15.01
2022-10-01T05:25:47.567Z,15.01
2022-10-01T05:28:21.964Z,15.03
2022-10-01T05:30:49.367Z,15.04
2022-10-01T05:33:16.620Z,15.04
2022-10-01T05:35:44.449Z,15.04
2022-10-01T05:38:11.576Z,15.06
2022-10-01T05:40:38.558Z,15.09
2022-10-01T05:43:05.546Z,15.09
2022-10-01T05:45:32.987Z,15.09
2022-10-01T05:48:06.933Z,15.10
2022-10-01T05:50:40.338Z,15.11
2022-10-01T05:53:09.863Z,15.14
2022-10-01T05:55:37.514Z,15.14
2022-10-01T05:58:10.419Z,15.13
2022-10-01T06:00:39.531Z,15.13
2022-10-01T06:03:07.916Z,15.11
2022-10-01T06:05:36.392Z,15.13
2022-10-01T06:08:07.141Z,15.14
2022-10-01T06:10:35.117Z,15.14
2022-10-01T06:13:02.891Z,15.17
2022-10-01T06:15:30.280Z,15.19
2022-10-01T06:18:01.285Z,15.21
2022-10-01T06:20:28.236Z,15.22
2022-10-01T06:22:57.654Z,15.23
2022-10-01T06:25:29.042Z,15.26
2022-10-01T06:27:59.766Z,15.27
2022-10-01T06:30:31.896Z,15.28
2022-10-01T06:33:03.642Z,15.30
2022-10-01T06:35:32.064Z,15.30
2022-10-01T06:38:01.676Z,15.35
2022-10-01T06:40:30.362Z,15.35
2022-10-01T06:43:00.356Z,15.34
2022-10-01T06:45:30.148Z,15.38
2022-10-01T06:48:02.714Z,15.39
2022-10-01T06:50:33.891Z,15.38
2022-10-01T06:53:02.041Z,15.40
2022-10-01T06:55:32.298Z,15.37
2022-10-01T06:58:06.481Z,15.41
2022-10-01T07:00:36.440Z,15.40
2022-10-01T07:03:10.222Z,15.42
2022-10-01T07:05:38.921Z,15.43
2022-10-01T07:08:06.750Z,15.44
2022-10-01T07:10:35.398Z,15.45
2022-10-01T07:13:20.346Z,15.48
2022-10-01T07:15:52.439Z,15.49
2022-10-01T07:18:30.958Z,15.50
2022-10-01T07:20:58.393Z,15.52
2022-10-01T07:23:25.447Z,15.50
2022-10-01T07:25:52.610Z,15.54
2022-10-01T07:28:24.062Z,15.53
2022-10-01T07:31:05.064Z,15.55
2022-10-01T07:33:32.214Z,15.54
2022-10-01T07:36:05.079Z,15.55
2022-10-01T07:38:33.632Z,15.54
2022-10-01T07:41:02.868Z,15.56
2022-10-01T07:43:31.939Z,15.53
2022-10-01T07:46:00.343Z,15.55
2022-10-01T07:48:28.011Z,15.58
2022-10-01T07:50:54.966Z,15.57
2022-10-01T07:53:24.637Z,15.58
2022-10-01T07:55:53.686Z,15.61
2022-10-01T07:58:23.976Z,15.66
2022-10-01T08:00:56.009Z,15.65
2022-10-01T08:03:23.384Z,15.70
2022-10-01T08:05:50.694Z,15.72
2022-10-01T08:08:17.643Z,15.75
2022-10-01T08:10:44.753Z,15.77
2022-10-01T08:13:16.475Z,15.82
2022-10-01T08:15:46.598Z,15.85
2022-10-01T08:18:14.261Z,15.84
2022-10-01T08:20:41.406Z,15.90
2022-10-01T08:23:14.256Z,15.99
2022-10-01T08:25:43.952Z,16.09
2022-10-01T08:28:12.073Z,16.18
2022-10-01T08:30:41.586Z,16.22
2022-10-01T08:33:11.924Z,16.27
2022-10-01T08:35:40.763Z,16.35
2022-10-01T08:38:08.296Z,16.38
2022-10-01T08:40:42.205Z,16.47
2022-10-01T08:43:33.902Z,16.50
2022-10-01T08:46:16.375Z,16.53
2022-10-01T08:48:57.540Z,16.61
2022-10-01T08:51:42.394Z,16.64
2022-10-01T08:54:39.790Z,16.72
2022-10-01T08:57:20.961Z,16.75
2022-10-01T09:00:01.390Z,16.73
2022-10-01T09:02:35.379Z,16.87
2022-10-01T09:05:12.178Z,16.81
2022-10-01T09:07:51.584Z,16.97
2022-10-01T09:10:46.716Z,17.07
2022-10-01T09:13:51.676Z,17.12
2022-10-01T09:16:49.210Z,17.18
2022-10-01T09:19:40.977Z,17.23
2022-10-01T09:22:27.807Z,17.31
2022-10-01T09:25:22.028Z,17.35
2022-10-01T09:27:50.435Z,17.49
2022-10-01T09:30:22.511Z,17.58
2022-10-01T09:32:56.427Z,17.69
2022-10-01T09:35:54.750Z,17.84
2022-10-01T09:38:27.322Z,17.98
2022-10-01T09:40:57.157Z,18.01
2022-10-01T09:43:32.560Z,18.02
2022-10-01T09:46:00.280Z,18.03
2022-10-01T09:48:55.878Z,18.17
2022-10-01T09:51:46.255Z,18.30
2022-10-01T09:54:56.307Z,18.43
2022-10-01T09:57:28.369Z,18.58
2022-10-01T10:00:11.854Z,18.55
2022-10-01T10:02:49.749Z,18.37
2022-10-01T10:05:23.212Z,18.31
2022-10-01T10:08:03.190Z,18.39
2022-10-01T10:10:37.879Z,18.46
2022-10-01T10:13:10.136Z,18.47
2022-10-01T10:15:50.192Z,18.44
2022-10-01T10:18:24.051Z,18.53
2022-10-01T10:20:54.128Z,18.69
2022-10-01T10:23:29.389Z,18.84
2022-10-01T10:26:02.946Z,18.87
2022-10-01T10:28:44.956Z,18.96
2022-10-01T10:31:21.027Z,19.11
2022-10-01T10:34:16.712Z,19.09
2022-10-01T10:36:46.176Z,19.12
2022-10-01T10:39:28.512Z,19.14
2022-10-01T10:41:58.412Z,19.21
2022-10-01T10:44:32.158Z,19.18
2022-10-01T10:47:03.087Z,19.15
2022-10-01T10:49:46.020Z,19.41
2022-10-01T10:52:29.961Z,19.65
2022-10-01T10:54:59.450Z,19.71
2022-10-01T10:57:34.822Z,19.69
2022-10-01T11:00:18.983Z,19.73
2022-10-01T11:02:57.876Z,20.01
2022-10-01T11:05:32.811Z,20.04
2022-10-01T11:08:16.911Z,20.17
2022-10-01T11:11:33.779Z,20.18
2022-10-01T11:14:47.059Z,20.18
2022-10-01T11:17:58.579Z,20.26
2022-10-01T11:20:52.013Z,20.32
2022-10-01T11:24:01.785Z,20.43
2022-10-01T11:26:41.457Z,20.59
2022-10-01T11:29:32.478Z,20.65
2022-10-01T11:32:19.396Z,20.85
2022-10-01T11:35:17.223Z,20.80
2022-10-01T11:38:17.639Z,20.37
2022-10-01T11:40:54.400Z,20.37
2022-10-01T11:43:42.893Z,20.49
2022-10-01T11:46:37.937Z,20.53
2022-10-01T11:50:13.979Z,20.78
2022-10-01T11:53:11.647Z,20.58
2022-10-01T11:56:09.772Z,20.67
2022-10-01T11:58:59.227Z,20.88
2022-10-01T12:01:51.411Z,20.70
2022-10-01T12:04:58.903Z,20.59
2022-10-01T12:07:44.047Z,20.77
2022-10-01T12:10:47.449Z,20.77
2022-10-01T12:13:40.231Z,20.64
2022-10-01T12:16:46.044Z,20.61
2022-10-01T12:19:37.150Z,20.54
2022-10-01T12:22:15.347Z,20.62
2022-10-01T12:24:46.366Z,20.56
2022-10-01T12:27:47.943Z,20.56
2022-10-01T12:30:22.210Z,20.53
2022-10-01T12:33:20.459Z,20.51
2022-10-01T12:36:13.387Z,20.46
2022-10-01T12:38:52.382Z,20.48
2022-10-01T12:41:59.683Z,20.45
2022-10-01T12:44:44.505Z,20.41
2022-10-01T12:47:49.602Z,20.52
2022-10-01T12:50:35.304Z,20.61
2022-10-01T12:53:48.336Z,20.50
2022-10-01T12:56:44.360Z,20.55
2022-10-01T12:59:45.045Z,20.49
2022-10-01T13:03:10.604Z,20.54
2022-10-01T13:06:20.233Z,20.45
2022-10-01T13:09:09.237Z,20.44
2022-10-01T13:12:16.412Z,20.39
2022-10-01T13:14:45.146Z,20.36
2022-10-01T13:18:01.345Z,20.29
2022-10-01T13:20:41.657Z,20.24
2022-10-01T13:23:41.184Z,20.11
2022-10-01T13:26:19.083Z,20.11
2022-10-01T13:29:01.515Z,20.04
2022-10-01T13:31:57.017Z,20.14
2022-10-01T13:34:46.203Z,20.18
2022-10-01T13:37:32.571Z,20.15
2022-10-01T13:40:00.863Z,20.15
2022-10-01T13:42:47.618Z,20.16
2022-10-01T13:45:31.910Z,20.24
2022-10-01T13:48:10.977Z,20.34
2022-10-01T13:51:04.287Z,20.36
2022-10-01T13:53:38.297Z,20.41
2022-10-01T13:56:06.358Z,20.38
2022-10-01T13:58:42.338Z,20.51
2022-10-01T14:01:24.092Z,20.47
2022-10-01T14:04:28.460Z,20.27
2022-10-01T14:07:25.260Z,20.25
2022-10-01T14:09:59.267Z,20.29
2022-10-01T14:12:54.304Z,20.23
2022-10-01T14:15:51.619Z,20.34
2022-10-01T14:18:23.507Z,20.19
2022-10-01T14:21:25.719Z,20.23
2022-10-01T14:24:05.429Z,20.22
2022-10-01T14:26:58.084Z,20.11
2022-10-01T14:29:51.570Z,20.08
2022-10-01T14:32:59.555Z,20.13
2022-10-01T14:36:02.879Z,20.13
2022-10-01T14:38:30.927Z,20.00
2022-10-01T14:40:57.884Z,19.99
2022-10-01T14:43:27.925Z,19.92
2022-10-01T14:46:05.235Z,19.88
2022-10-01T14:48:35.539Z,19.83
2022-10-01T14:51:07.231Z,19.84
2022-10-01T14:53:38.438Z,19.77
2022-10-01T14:56:11.367Z,19.71
2022-10-01T14:58:55.625Z,19.63
2022-10-01T15:01:25.390Z,19.62
2022-10-01T15:03:53.301Z,19.57
2022-10-01T15:06:24.840Z,19.57
2022-10-01T15:08:55.029Z,19.57
2022-10-01T15:11:28.951Z,19.47
2022-10-01T15:14:06.727Z,19.32
2022-10-01T15:16:36.327Z,19.34
2022-10-01T15:19:13.848Z,19.44
2022-10-01T15:21:54.206Z,19.39
2022-10-01T15:24:49.088Z,19.50
2022-10-01T15:27:20.847Z,19.54
2022-10-01T15:29:56.218Z,19.62
2022-10-01T15:32:25.818Z,19.48
2022-10-01T15:35:00.660Z,19.49
2022-10-01T15:37:35.740Z,19.48
2022-10-01T15:40:06.255Z,19.49
2022-10-01T15:42:36.598Z,19.51
2022-10-01T15:45:10.224Z,19.41
2022-10-01T15:47:51.726Z,19.43
2022-10-01T15:50:23.035Z,19.41
2022-10-01T15:53:19.634Z,19.41
2022-10-01T15:55:52.286Z,19.39
2022-10-01T15:58:36.956Z,19.33
2022-10-01T16:01:07.138Z,19.35
2022-10-01T16:03:40.648Z,19.30
2022-10-01T16:06:27.138Z,19.28
2022-10-01T16:09:15.839Z,19.28
2022-10-01T16:12:11.021Z,19.22
2022-10-01T16:14:58.150Z,19.19
2022-10-01T16:17:33.178Z,19.17
2022-10-01T16:20:15.018Z,19.15
2022-10-01T16:22:43.529Z,19.09
2022-10-01T16:25:19.644Z,19.10
2022-10-01T16:27:50.047Z,19.06
2022-10-01T16:30:21.321Z,18.99
2022-10-01T16:32:49.287Z,18.98
2022-10-01T16:35:16.456Z,18.92
2022-10-01T16:37:45.558Z,18.89
2022-10-01T16:40:16.160Z,18.80
2022-10-01T16:42:45.674Z,18.80
2022-10-01T16:45:25.572Z,18.78
2022-10-01T16:47:56.735Z,18.68
2022-10-01T16:50:24.686Z,18.60
2022-10-01T16:53:01.425Z,18.52
2022-10-01T16:55:37.644Z,18.44
2022-10-01T16:58:06.305Z,18.36
2022-10-01T17:00:34.686Z,18.32
2022-10-01T17:03:01.848Z,18.25
2022-10-01T17:05:33.559Z,18.22
2022-10-01T17:08:09.948Z,18.15
2022-10-01T17:10:47.655Z,18.06
2022-10-01T17:13:15.703Z,18.02
2022-10-01T17:15:43.583Z,17.97
2022-10-01T17:18:10.781Z,17.96
2022-10-01T17:20:38.284Z,17.95
2022-10-01T17:23:06.052Z,17.94
2022-10-01T17:25:35.820Z,17.88
2022-10-01T17:28:06.638Z,17.81
2022-10-01T17:30:34.142Z,17.78
2022-10-01T17:33:01.673Z,17.70
2022-10-01T17:35:30.091Z,17.68
2022-10-01T17:37:58.342Z,17.64
2022-10-01T17:40:25.782Z,17.55
2022-10-01T17:42:52.859Z,17.54
2022-10-01T17:45:20.075Z,17.46
2022-10-01T17:47:50.372Z,17.40
2022-10-01T17:50:18.773Z,17.39
2022-10-01T17:52:48.539Z,17.32
2022-10-01T17:55:17.201Z,17.23
2022-10-01T17:57:44.170Z,17.24
2022-10-01T18:00:11.823Z,17.15
2022-10-01T18:02:43.287Z,17.11
2022-10-01T18:05:14.527Z,17.07
2022-10-01T18:07:42.514Z,17.02
2022-10-01T18:10:13.187Z,17.03
2022-10-01T18:12:40.813Z,16.96
2022-10-01T18:15:09.102Z,16.90
2022-10-01T18:17:42.962Z,16.89
2022-10-01T18:20:10.567Z,16.85
2022-10-01T18:22:38.092Z,16.81
2022-10-01T18:25:07.017Z,16.84
2022-10-01T18:27:34.082Z,16.80
2022-10-01T18:30:01.642Z,16.76
2022-10-01T18:32:40.378Z,16.75
2022-10-01T18:35:33.256Z,16.77
2022-10-01T18:38:12.651Z,16.79
2022-10-01T18:40:44.120Z,16.76
2022-10-01T18:43:23.019Z,16.77
2022-10-01T18:46:08.570Z,16.79
2022-10-01T18:48:53.605Z,16.78
2022-10-01T18:52:04.836Z,16.79
2022-10-01T18:55:05.095Z,16.78
2022-10-01T18:58:29.188Z,16.80
2022-10-01T19:01:22.641Z,16.79
2022-10-01T19:04:07.419Z,16.74
2022-10-01T19:07:25.256Z,16.73
2022-10-01T19:10:17.425Z,16.70
2022-10-01T19:13:11.676Z,16.67
2022-10-01T19:16:04.985Z,16.62
2022-10-01T19:19:03.195Z,16.59
2022-10-01T19:21:49.275Z,16.53
2022-10-01T19:25:01.132Z,16.49
2022-10-01T19:27:35.335Z,16.48
2022-10-01T19:30:10.871Z,16.46
2022-10-01T19:32:46.023Z,16.46
2022-10-01T19:35:41.572Z,16.46
2022-10-01T19:38:23.010Z,16.43
2022-10-01T19:41:15.546Z,16.43
2022-10-01T19:43:57.481Z,16.36
2022-10-01T19:46:35.962Z,16.36
2022-10-01T19:49:08.877Z,16.35
2022-10-01T19:51:40.902Z,16.32
2022-10-01T19:54:21.169Z,16.27
2022-10-01T19:57:05.658Z,16.25
2022-10-01T19:59:32.780Z,16.24
2022-10-01T20:02:31.742Z,16.22
2022-10-01T20:05:13.150Z,16.14
2022-10-01T20:07:48.225Z,16.12
2022-10-01T20:10:55.867Z,16.10
2022-10-01T20:13:43.821Z,16.06
2022-10-01T20:16:51.667Z,16.03
2022-10-01T20:19:47.780Z,16.06
2022-10-01T20:22:39.860Z,16.04
2022-10-01T20:25:23.971Z,15.99
2022-10-01T20:28:10.695Z,15.98
2022-10-01T20:31:09.693Z,15.98
2022-10-01T20:34:08.166Z,15.94
2022-10-01T20:37:24.318Z,15.95
2022-10-01T20:40:26.354Z,15.88
2022-10-01T20:43:22.223Z,15.93
2022-10-01T20:45:53.624Z,15.89
2022-10-01T20:48:32.313Z,15.87
2022-10-01T20:51:12.109Z,15.83
2022-10-01T20:53:55.505Z,15.81
2022-10-01T20:56:28.672Z,15.81
2022-10-01T20:59:18.083Z,15.77
2022-10-01T21:02:03.596Z,15.77
2022-10-01T21:04:41.200Z,15.72
2022-10-01T21:07:39.564Z,15.67
2022-10-01T21:10:27.001Z,15.71
2022-10-01T21:13:06.177Z,15.70
2022-10-01T21:16:07.504Z,15.70
2022-10-01T21:18:54.502Z,15.70
2022-10-01T21:21:36.287Z,15.66
2022-10-01T21:24:25.169Z,15.63
2022-10-01T21:27:26.486Z,15.63
2022-10-01T21:30:06.990Z,15.63
2022-10-01T21:33:15.876Z,15.60
2022-10-01T21:36:11.625Z,15.58
2022-10-01T21:39:07.852Z,15.57
2022-10-01T21:42:14.109Z,15.56
2022-10-01T21:45:06.467Z,15.57
2022-10-01T21:47:58.745Z,15.55
2022-10-01T21:50:41.018Z,15.56
2022-10-01T21:53:39.476Z,15.58
2022-10-01T21:57:02.340Z,15.57
2022-10-01T22:00:08.721Z,15.55
2022-10-01T22:02:53.852Z,15.54
2022-10-01T22:05:56.130Z,15.55
2022-10-01T22:08:41.924Z,15.54
2022-10-01T22:11:26.140Z,15.51
2022-10-01T22:14:12.825Z,15.51
2022-10-01T22:16:54.448Z,15.55
2022-10-01T22:19:34.429Z,15.58
2022-10-01T22:22:43.675Z,15.54
2022-10-01T22:25:13.675Z,15.53
2022-10-01T22:27:51.835Z,15.55
2022-10-01T22:30:27.351Z,15.52
2022-10-01T22:33:17.207Z,15.54
2022-10-01T22:35:57.972Z,15.55
2022-10-01T22:38:54.219Z,15.53
2022-10-01T22:41:41.322Z,15.53
2022-10-01T22:44:21.890Z,15.53
2022-10-01T22:47:25.424Z,15.53
2022-10-01T22:50:27.908Z,15.50
2022-10-01T22:53:20.600Z,15.50
2022-10-01T22:55:58.267Z,15.53
2022-10-01T22:59:01.182Z,15.53
2022-10-01T23:01:37.055Z,15.53
2022-10-01T23:04:50.995Z,15.54
2022-10-01T23:07:28.107Z,15.50
2022-10-01T23:10:10.463Z,15.52
2022-10-01T23:12:55.354Z,15.54
2022-10-01T23:15:45.222Z,15.53
2022-10-01T23:19:04.725Z,15.52
2022-10-01T23:21:51.671Z,15.52
2022-10-01T23:24:32.205Z,15.54
2022-10-01T23:27:46.249Z,15.54
2022-10-01T23:30:17.838Z,15.53
2022-10-01T23:33:31.766Z,15.56
2022-10-01T23:36:19.958Z,15.58
2022-10-01T23:39:39.823Z,15.56
2022-10-01T23:42:37.345Z,15.57
2022-10-01T23:45:21.787Z,15.54
2022-10-01T23:48:13.267Z,15.53
2022-10-01T23:50:45.030Z,15.55
2022-10-01T23:53:18.825Z,15.53
2022-10-01T23:56:23.058Z,15.56
2022-10-01T23:59:27.050Z,15.56
